createdAt,value
2023-08-18T00:02:05.784Z,89397.22
2023-08-18T00:04:32.692Z,89406.09
2023-08-18T00:06:59.677Z,89393.44
2023-08-18T00:09:26.579Z,89406.31
2023-08-18T00:11:53.608Z,89418.66
2023-08-18T00:14:20.473Z,89402.13
2023-08-18T00:16:47.417Z,89411.72
2023-08-18T00:19:15.015Z,89410.53
2023-08-18T00:21:41.875Z,89411.69
2023-08-18T00:24:08.887Z,89408.81
2023-08-18T00:26:35.859Z,89416.38
2023-08-18T00:29:02.865Z,89413.34
2023-08-18T00:31:29.875Z,89413.34
2023-08-18T00:33:56.987Z,89418.25
2023-08-18T00:36:23.961Z,89424.50
2023-08-18T00:38:50.845Z,89405.81
2023-08-18T00:41:17.802Z,89408.56
2023-08-18T00:43:44.987Z,89429.91
2023-08-18T00:46:12.012Z,89417.00
2023-08-18T00:48:39.616Z,89413.50
2023-08-18T00:51:06.754Z,89401.06
2023-08-18T00:53:34.384Z,89419.78
2023-08-18T00:56:02.583Z,89409.13
2023-08-18T00:58:29.750Z,89412.09
2023-08-18T01:00:57.008Z,89409.75
2023-08-18T01:03:24.447Z,89404.59
2023-08-18T01:05:51.290Z,89408.41
2023-08-18T01:08:18.143Z,89401.13
2023-08-18T01:11:14.179Z,89412.75
2023-08-18T01:14:10.565Z,89393.78
2023-08-18T01:16:40.225Z,89411.69
2023-08-18T01:19:10.688Z,89418.59
2023-08-18T01:21:42.210Z,89407.69
2023-08-18T01:24:09.722Z,89413.84
2023-08-18T01:26:36.586Z,89420.50
2023-08-18T01:29:03.727Z,89431.56
2023-08-18T01:31:33.994Z,89434.84
2023-08-18T01:34:05.973Z,89438.22
2023-08-18T01:36:38.701Z,89436.69
2023-08-18T01:39:07.658Z,89427.25
2023-08-18T01:41:35.621Z,89429.47
2023-08-18T01:44:02.749Z,89427.31
2023-08-18T01:46:29.832Z,89442.63
2023-08-18T01:48:56.785Z,89436.84
2023-08-18T01:51:23.641Z,89442.44
2023-08-18T01:53:50.665Z,89444.16
2023-08-18T01:56:17.662Z,89438.94
2023-08-18T01:58:44.580Z,89432.75
2023-08-18T02:01:11.527Z,89441.50
2023-08-18T02:03:38.467Z,89446.44
2023-08-18T02:06:05.424Z,89432.16
2023-08-18T02:08:32.472Z,89441.72
2023-08-18T02:11:05.681Z,89442.66
2023-08-18T02:13:33.129Z,89447.25
2023-08-18T02:16:00.755Z,89451.06
2023-08-18T02:18:27.679Z,89441.47
2023-08-18T02:20:59.683Z,89449.63
2023-08-18T02:23:26.870Z,89453.13
2023-08-18T02:26:00.945Z,89451.53
2023-08-18T02:28:28.040Z,89457.28
2023-08-18T02:31:02.279Z,89459.53
2023-08-18T02:33:33.440Z,89454.00
2023-08-18T02:36:00.614Z,89454.31
2023-08-18T02:38:28.239Z,89452.78
2023-08-18T02:40:55.495Z,89468.03
2023-08-18T02:43:25.867Z,89461.41
2023-08-18T02:45:57.172Z,89472.59
2023-08-18T02:48:27.133Z,89464.78
2023-08-18T02:51:14.221Z,89471.31
2023-08-18T02:53:41.167Z,89470.66
2023-08-18T02:56:08.078Z,89468.00
2023-08-18T02:58:35.117Z,89473.03
2023-08-18T03:01:04.298Z,89462.63
2023-08-18T03:03:31.371Z,89473.31
2023-08-18T03:06:05.625Z,89471.34
2023-08-18T03:08:32.896Z,89469.16
2023-08-18T03:11:01.101Z,89474.41
2023-08-18T03:13:28.897Z,89473.66
2023-08-18T03:15:56.247Z,89478.03
2023-08-18T03:18:23.575Z,89476.03
2023-08-18T03:20:51.074Z,89477.31
2023-08-18T03:23:19.739Z,89474.41
2023-08-18T03:25:46.785Z,89476.03
2023-08-18T03:28:13.883Z,89484.38
2023-08-18T03:30:41.418Z,89476.94
2023-08-18T03:33:09.046Z,89484.91
2023-08-18T03:35:36.127Z,89491.72
2023-08-18T03:38:04.393Z,89484.97
2023-08-18T03:40:31.328Z,89487.78
2023-08-18T03:42:58.421Z,89489.59
2023-08-18T03:45:25.622Z,89483.97
2023-08-18T03:47:52.868Z,89493.19
2023-08-18T03:50:22.970Z,89499.06
2023-08-18T03:52:50.140Z,89503.25
2023-08-18T03:55:19.172Z,89494.75
2023-08-18T03:57:46.132Z,89502.50
2023-08-18T04:00:13.973Z,89495.06
2023-08-18T04:02:41.237Z,89500.91
2023-08-18T04:05:08.424Z,89505.25
2023-08-18T04:07:35.334Z,89504.47
2023-08-18T04:10:02.491Z,89499.47
2023-08-18T04:12:29.675Z,89503.47
2023-08-18T04:14:56.786Z,89514.88
2023-08-18T04:17:25.435Z,89503.00
2023-08-18T04:19:53.792Z,89489.31
2023-08-18T04:22:20.663Z,89517.44
2023-08-18T04:24:47.557Z,89512.47
2023-08-18T04:27:14.557Z,89515.44
2023-08-18T04:29:41.418Z,89521.94
2023-08-18T04:32:08.387Z,89516.50
2023-08-18T04:34:35.513Z,89514.00
2023-08-18T04:37:02.365Z,89520.56
2023-08-18T04:39:29.290Z,89526.09
2023-08-18T04:41:56.236Z,89521.69
2023-08-18T04:44:23.187Z,89523.84
2023-08-18T04:46:50.217Z,89530.59
2023-08-18T04:49:17.099Z,89532.75
2023-08-18T04:51:43.943Z,89528.34
2023-08-18T04:54:10.755Z,89537.09
2023-08-18T04:56:37.746Z,89529.66
2023-08-18T04:59:04.797Z,89538.06
2023-08-18T05:01:31.727Z,89550.03
2023-08-18T05:03:58.748Z,89545.50
2023-08-18T05:06:26.000Z,89540.69
2023-08-18T05:08:52.868Z,89540.22
2023-08-18T05:11:19.799Z,89550.34
2023-08-18T05:13:46.660Z,89551.16
2023-08-18T05:16:13.617Z,89550.00
2023-08-18T05:18:40.554Z,89559.72
2023-08-18T05:21:07.484Z,89553.88
2023-08-18T05:23:34.318Z,89559.31
2023-08-18T05:26:01.436Z,89548.72
2023-08-18T05:28:29.203Z,89553.22
2023-08-18T05:30:56.707Z,89563.22
2023-08-18T05:33:23.743Z,89564.19
2023-08-18T05:35:50.864Z,89560.50
2023-08-18T05:38:18.028Z,89555.44
2023-08-18T05:40:49.107Z,89563.75
2023-08-18T05:43:17.694Z,89546.25
2023-08-18T05:45:46.021Z,89560.44
2023-08-18T05:48:14.155Z,89551.50
2023-08-18T05:50:41.664Z,89552.69
2023-08-18T05:53:08.666Z,89562.31
2023-08-18T05:55:35.605Z,89558.66
2023-08-18T05:58:05.464Z,89565.72
2023-08-18T06:00:33.012Z,89563.28
2023-08-18T06:03:00.608Z,89568.22
2023-08-18T06:05:27.806Z,89563.66
2023-08-18T06:07:54.849Z,89561.44
2023-08-18T06:10:22.251Z,89559.19
2023-08-18T06:12:49.503Z,89567.34
2023-08-18T06:15:22.023Z,89564.78
2023-08-18T06:17:49.461Z,89567.97
2023-08-18T06:20:16.798Z,89562.09
2023-08-18T06:22:44.039Z,89573.34
2023-08-18T06:25:11.945Z,89561.09
2023-08-18T06:27:38.848Z,89568.13
2023-08-18T06:30:06.637Z,89564.56
2023-08-18T06:32:33.782Z,89569.84
2023-08-18T06:35:00.805Z,89572.13
2023-08-18T06:37:27.749Z,89568.63
2023-08-18T06:39:54.882Z,89558.06
2023-08-18T06:42:21.870Z,89554.84
2023-08-18T06:44:48.897Z,89563.16
2023-08-18T06:47:15.777Z,89562.69
2023-08-18T06:49:42.836Z,89565.81
2023-08-18T06:52:09.759Z,89561.75
2023-08-18T06:54:36.774Z,89557.25
2023-08-18T06:57:03.702Z,89566.22
2023-08-18T06:59:30.603Z,89564.53
2023-08-18T07:01:57.537Z,89562.06
2023-08-18T07:04:24.429Z,89560.84
2023-08-18T07:06:51.372Z,89569.47
2023-08-18T07:09:18.258Z,89562.84
2023-08-18T07:11:45.426Z,89567.72
2023-08-18T07:14:12.256Z,89566.34
2023-08-18T07:16:39.162Z,89574.34
2023-08-18T07:19:05.998Z,89574.59
2023-08-18T07:21:32.945Z,89571.13
2023-08-18T07:23:59.830Z,89567.81
2023-08-18T07:26:26.658Z,89576.34
2023-08-18T07:28:53.562Z,89571.88
2023-08-18T07:31:20.509Z,89569.69
2023-08-18T07:33:47.842Z,89574.31
2023-08-18T07:36:14.842Z,89567.44
2023-08-18T07:38:41.891Z,89573.38
2023-08-18T07:41:08.824Z,89568.69
2023-08-18T07:43:35.787Z,89575.13
2023-08-18T07:46:02.997Z,89569.63
2023-08-18T07:48:29.908Z,89561.25
2023-08-18T07:50:57.471Z,89562.31
2023-08-18T07:53:24.455Z,89576.44
2023-08-18T07:55:51.506Z,89575.13
2023-08-18T07:58:18.634Z,89568.19
2023-08-18T08:00:45.573Z,89567.09
2023-08-18T08:03:12.719Z,89570.34
2023-08-18T08:05:39.775Z,89557.69
2023-08-18T08:08:07.391Z,89572.66
2023-08-18T08:10:34.634Z,89564.16
2023-08-18T08:13:01.739Z,89568.19
2023-08-18T08:15:28.942Z,89561.50
2023-08-18T08:17:57.063Z,89570.59
2023-08-18T08:20:30.265Z,89565.09
2023-08-18T08:22:57.877Z,89558.13
2023-08-18T08:25:24.822Z,89553.03
2023-08-18T08:27:52.261Z,89556.03
2023-08-18T08:30:34.866Z,89559.56
2023-08-18T08:33:03.801Z,89547.06
2023-08-18T08:35:30.765Z,89546.97
2023-08-18T08:37:58.128Z,89550.19
2023-08-18T08:40:25.595Z,89559.69
2023-08-18T08:42:56.153Z,89544.09
2023-08-18T08:45:27.053Z,89541.94
2023-08-18T08:47:56.830Z,89537.75
2023-08-18T08:50:32.696Z,89543.19
2023-08-18T08:53:02.012Z,89540.50
2023-08-18T08:55:33.345Z,89539.13
2023-08-18T08:58:01.868Z,89529.53
2023-08-18T09:00:28.991Z,89530.38
2023-08-18T09:03:01.183Z,89529.09
2023-08-18T09:05:33.368Z,89529.91
2023-08-18T09:08:00.674Z,89527.03
2023-08-18T09:10:28.530Z,89524.28
2023-08-18T09:12:56.009Z,89528.06
2023-08-18T09:15:24.637Z,89526.34
2023-08-18T09:17:51.721Z,89524.72
2023-08-18T09:20:18.812Z,89522.31
2023-08-18T09:22:46.292Z,89527.16
2023-08-18T09:25:14.198Z,89528.41
2023-08-18T09:27:41.286Z,89533.09
2023-08-18T09:30:08.630Z,89517.97
2023-08-18T09:32:38.835Z,89530.75
2023-08-18T09:35:13.040Z,89520.34
2023-08-18T09:37:40.408Z,89517.88
2023-08-18T09:40:07.859Z,89522.56
2023-08-18T09:42:34.846Z,89528.19
2023-08-18T09:45:01.869Z,89519.69
2023-08-18T09:47:31.938Z,89528.66
2023-08-18T09:50:00.404Z,89521.22
2023-08-18T09:52:28.499Z,89519.25
2023-08-18T09:55:17.708Z,89530.66
2023-08-18T09:57:53.402Z,89524.16
2023-08-18T10:00:21.198Z,89520.91
2023-08-18T10:02:47.989Z,89530.50
2023-08-18T10:05:16.322Z,89520.97
2023-08-18T10:07:44.975Z,89520.84
2023-08-18T10:10:13.729Z,89527.38
2023-08-18T10:12:45.706Z,89524.53
2023-08-18T10:15:13.344Z,89525.66
2023-08-18T10:17:49.609Z,89524.25
2023-08-18T10:20:16.588Z,89526.34
2023-08-18T10:22:43.673Z,89528.88
2023-08-18T10:25:10.831Z,89527.69
2023-08-18T10:27:39.593Z,89518.28
2023-08-18T10:30:09.413Z,89518.00
2023-08-18T10:32:37.119Z,89521.03
2023-08-18T10:35:19.133Z,89522.31
2023-08-18T10:37:45.870Z,89523.50
2023-08-18T10:40:22.886Z,89514.59
2023-08-18T10:42:52.216Z,89503.88
2023-08-18T10:45:29.730Z,89514.16
2023-08-18T10:48:03.580Z,89512.19
2023-08-18T10:50:32.830Z,89517.22
2023-08-18T10:52:59.783Z,89523.81
2023-08-18T10:55:27.277Z,89525.75
2023-08-18T10:57:54.534Z,89516.28
2023-08-18T11:00:21.472Z,89513.03
2023-08-18T11:02:50.660Z,89513.78
2023-08-18T11:05:22.869Z,89523.09
2023-08-18T11:07:51.274Z,89506.81
2023-08-18T11:10:18.873Z,89507.06
2023-08-18T11:12:46.032Z,89505.31
2023-08-18T11:15:13.280Z,89504.09
2023-08-18T11:17:40.559Z,89503.78
2023-08-18T11:20:08.560Z,89508.44
2023-08-18T11:22:36.969Z,89504.25
2023-08-18T11:25:07.991Z,89511.38
2023-08-18T11:27:35.481Z,89500.84
2023-08-18T11:30:03.015Z,89502.91
2023-08-18T11:32:30.238Z,89503.63
2023-08-18T11:35:00.884Z,89510.41
2023-08-18T11:37:28.275Z,89502.47
2023-08-18T11:39:55.205Z,89497.34
2023-08-18T11:42:22.849Z,89503.28
2023-08-18T11:44:50.117Z,89494.34
2023-08-18T11:47:20.115Z,89496.75
2023-08-18T11:49:47.131Z,89492.22
2023-08-18T11:52:14.211Z,89482.84
2023-08-18T11:54:41.203Z,89488.00
2023-08-18T11:57:07.966Z,89489.81
2023-08-18T11:59:35.161Z,89484.31
2023-08-18T12:02:03.961Z,89487.59
2023-08-18T12:04:33.532Z,89478.78
2023-08-18T12:07:01.352Z,89493.94
2023-08-18T12:09:28.304Z,89490.63
2023-08-18T12:11:55.132Z,89482.97
2023-08-18T12:14:22.702Z,89485.72
2023-08-18T12:16:50.871Z,89482.47
2023-08-18T12:19:17.843Z,89480.41
2023-08-18T12:21:45.270Z,89476.94
2023-08-18T12:24:12.416Z,89477.59
2023-08-18T12:26:39.454Z,89481.03
2023-08-18T12:29:06.415Z,89480.66
2023-08-18T12:31:33.519Z,89472.72
2023-08-18T12:34:00.948Z,89466.03
2023-08-18T12:36:27.892Z,89468.13
2023-08-18T12:38:55.097Z,89469.56
2023-08-18T12:41:22.002Z,89456.97
2023-08-18T12:43:48.988Z,89461.75
2023-08-18T12:46:15.931Z,89468.06
2023-08-18T12:48:42.891Z,89467.75
2023-08-18T12:51:09.762Z,89471.16
2023-08-18T12:53:36.617Z,89459.38
2023-08-18T12:56:03.646Z,89445.41
2023-08-18T12:58:30.961Z,89463.25
2023-08-18T13:00:57.889Z,89452.22
2023-08-18T13:03:24.862Z,89460.06
2023-08-18T13:05:51.866Z,89449.41
2023-08-18T13:08:18.764Z,89455.00
2023-08-18T13:10:45.609Z,89451.34
2023-08-18T13:13:12.545Z,89460.53
2023-08-18T13:15:39.445Z,89451.13
2023-08-18T13:18:06.980Z,89451.00
2023-08-18T13:20:34.021Z,89452.63
2023-08-18T13:23:03.526Z,89446.88
2023-08-18T13:25:32.741Z,89441.84
2023-08-18T13:27:59.998Z,89445.34
2023-08-18T13:30:27.193Z,89439.00
2023-08-18T13:32:54.083Z,89444.38
2023-08-18T13:35:21.038Z,89443.84
2023-08-18T13:37:48.280Z,89441.00
2023-08-18T13:40:15.211Z,89444.97
2023-08-18T13:42:42.156Z,89431.66
2023-08-18T13:45:09.546Z,89441.22
2023-08-18T13:47:36.519Z,89440.69
2023-08-18T13:50:03.623Z,89440.91
2023-08-18T13:52:30.579Z,89432.50
2023-08-18T13:54:57.745Z,89439.72
2023-08-18T13:57:24.684Z,89447.31
2023-08-18T13:59:51.595Z,89434.13
2023-08-18T14:02:18.416Z,89431.41
2023-08-18T14:04:45.455Z,89428.00
2023-08-18T14:07:12.320Z,89425.94
2023-08-18T14:09:39.284Z,89431.31
2023-08-18T14:12:06.586Z,89435.28
2023-08-18T14:14:33.456Z,89425.22
2023-08-18T14:17:00.377Z,89424.75
2023-08-18T14:19:28.882Z,89418.50
2023-08-18T14:21:56.026Z,89423.34
2023-08-18T14:24:22.923Z,89431.47
2023-08-18T14:26:51.518Z,89428.69
2023-08-18T14:29:18.895Z,89427.91
2023-08-18T14:31:49.030Z,89430.41
2023-08-18T14:34:15.892Z,89426.09
2023-08-18T14:36:42.808Z,89429.28
2023-08-18T14:39:09.732Z,89419.06
2023-08-18T14:41:38.566Z,89423.03
2023-08-18T14:44:05.623Z,89425.75
2023-08-18T14:46:32.568Z,89423.47
2023-08-18T14:48:59.496Z,89429.00
2023-08-18T14:51:26.467Z,89422.59
2023-08-18T14:53:53.453Z,89422.59
2023-08-18T14:56:20.354Z,89416.09
2023-08-18T14:58:47.340Z,89420.34
2023-08-18T15:01:14.521Z,89420.72
2023-08-18T15:03:41.554Z,89417.00
2023-08-18T15:06:09.330Z,89413.13
2023-08-18T15:08:38.060Z,89425.13
2023-08-18T15:11:05.105Z,89415.56
2023-08-18T15:13:32.029Z,89416.38
2023-08-18T15:15:58.883Z,89408.41
2023-08-18T15:18:25.750Z,89422.69
2023-08-18T15:20:52.573Z,89417.94
2023-08-18T15:23:19.655Z,89425.97
2023-08-18T15:25:46.853Z,89412.25
2023-08-18T15:28:13.810Z,89418.13
2023-08-18T15:30:40.729Z,89417.06
2023-08-18T15:33:07.937Z,89414.91
2023-08-18T15:35:34.904Z,89414.66
2023-08-18T15:38:03.346Z,89411.53
2023-08-18T15:40:30.367Z,89409.75
2023-08-18T15:42:57.340Z,89412.44
2023-08-18T15:45:24.289Z,89408.69
2023-08-18T15:47:51.268Z,89403.53
2023-08-18T15:50:24.621Z,89410.19
2023-08-18T15:52:51.620Z,89410.56
2023-08-18T15:55:18.601Z,89412.06
2023-08-18T15:57:48.437Z,89408.72
2023-08-18T16:00:15.775Z,89408.94
2023-08-18T16:02:42.926Z,89421.66
2023-08-18T16:05:10.331Z,89411.16
2023-08-18T16:07:37.229Z,89415.88
2023-08-18T16:10:06.354Z,89414.88
2023-08-18T16:12:33.210Z,89420.31
2023-08-18T16:15:27.509Z,89414.06
2023-08-18T16:17:47.006Z,89425.34
2023-08-18T16:20:14.043Z,89423.63
2023-08-18T16:22:41.073Z,89419.44
2023-08-18T16:25:08.528Z,89426.28
2023-08-18T16:27:35.579Z,89416.31
2023-08-18T16:30:03.712Z,89424.72
2023-08-18T16:32:31.801Z,89423.78
2023-08-18T16:34:58.739Z,89424.59
2023-08-18T16:37:25.838Z,89429.41
2023-08-18T16:39:52.845Z,89428.19
2023-08-18T16:42:19.742Z,89428.06
2023-08-18T16:44:46.819Z,89430.81
2023-08-18T16:47:13.824Z,89425.41
2023-08-18T16:49:40.796Z,89430.13
2023-08-18T16:52:07.778Z,89435.28
2023-08-18T16:54:38.447Z,89433.56
2023-08-18T16:57:05.860Z,89432.94
2023-08-18T16:59:33.086Z,89434.34
2023-08-18T17:02:03.746Z,89438.03
2023-08-18T17:04:31.870Z,89439.38
2023-08-18T17:06:59.559Z,89451.72
2023-08-18T17:09:26.436Z,89451.34
2023-08-18T17:11:54.203Z,89451.75
2023-08-18T17:14:21.129Z,89450.03
2023-08-18T17:16:48.042Z,89454.34
2023-08-18T17:19:15.036Z,89455.31
2023-08-18T17:21:42.414Z,89454.34
2023-08-18T17:24:13.776Z,89462.50
2023-08-18T17:26:42.246Z,89465.72
2023-08-18T17:29:09.250Z,89469.25
2023-08-18T17:31:36.178Z,89464.78
2023-08-18T17:34:03.156Z,89468.56
2023-08-18T17:36:30.052Z,89469.88
2023-08-18T17:38:56.964Z,89468.09
2023-08-18T17:41:23.967Z,89469.41
2023-08-18T17:43:50.853Z,89474.41
2023-08-18T17:46:20.683Z,89465.19
2023-08-18T17:48:47.628Z,89473.28
2023-08-18T17:51:14.512Z,89484.53
2023-08-18T17:53:41.506Z,89476.03
2023-08-18T17:56:08.534Z,89473.63
2023-08-18T17:58:42.257Z,89480.22
2023-08-18T18:01:09.249Z,89478.41
2023-08-18T18:03:39.289Z,89484.31
2023-08-18T18:06:08.860Z,89483.94
2023-08-18T18:08:36.327Z,89487.13
2023-08-18T18:11:04.063Z,89486.44
2023-08-18T18:13:35.382Z,89474.00
2023-08-18T18:16:02.656Z,89483.28
2023-08-18T18:18:29.756Z,89479.94
2023-08-18T18:20:56.771Z,89483.25
2023-08-18T18:23:23.804Z,89482.28
2023-08-18T18:25:50.711Z,89490.34
2023-08-18T18:28:17.752Z,89490.22
2023-08-18T18:30:44.758Z,89488.19
2023-08-18T18:33:12.245Z,89482.88
2023-08-18T18:35:39.151Z,89481.75
2023-08-18T18:38:07.008Z,89484.75
2023-08-18T18:40:34.180Z,89474.25
2023-08-18T18:43:01.219Z,89488.44
2023-08-18T18:45:28.718Z,89498.78
2023-08-18T18:47:55.843Z,89496.53
2023-08-18T18:50:22.874Z,89487.03
2023-08-18T18:52:56.872Z,89477.09
2023-08-18T18:55:23.830Z,89483.81
2023-08-18T18:57:50.944Z,89487.34
2023-08-18T19:00:18.465Z,89483.19
2023-08-18T19:02:45.997Z,89494.16
2023-08-18T19:05:13.127Z,89490.59
2023-08-18T19:07:43.419Z,89484.19
2023-08-18T19:10:10.696Z,89499.22
2023-08-18T19:12:37.752Z,89490.88
2023-08-18T19:15:05.060Z,89501.00
2023-08-18T19:17:32.564Z,89494.69
2023-08-18T19:20:00.077Z,89508.13
2023-08-18T19:22:33.678Z,89507.28
2023-08-18T19:25:02.428Z,89514.03
2023-08-18T19:27:29.793Z,89511.13
2023-08-18T19:29:59.439Z,89517.91
2023-08-18T19:32:27.233Z,89504.09
2023-08-18T19:34:54.323Z,89501.47
2023-08-18T19:37:21.240Z,89503.78
2023-08-18T19:39:48.740Z,89512.88
2023-08-18T19:42:18.012Z,89502.09
2023-08-18T19:44:45.128Z,89510.56
2023-08-18T19:47:12.006Z,89510.06
2023-08-18T19:49:42.136Z,89513.81
2023-08-18T19:52:09.018Z,89501.56
2023-08-18T19:54:36.437Z,89510.09
2023-08-18T19:57:03.526Z,89512.53
2023-08-18T19:59:30.593Z,89513.41
2023-08-18T20:01:58.012Z,89513.00
2023-08-18T20:04:25.444Z,89513.41
2023-08-18T20:06:52.675Z,89517.00
2023-08-18T20:09:19.654Z,89525.09
2023-08-18T20:11:46.680Z,89518.19
2023-08-18T20:14:17.554Z,89518.63
2023-08-18T20:16:44.584Z,89522.50
2023-08-18T20:19:11.877Z,89530.13
2023-08-18T20:21:38.796Z,89506.53
2023-08-18T20:24:05.924Z,89520.50
2023-08-18T20:26:33.159Z,89515.63
2023-08-18T20:29:00.143Z,89513.47
2023-08-18T20:31:27.164Z,89501.19
2023-08-18T20:33:54.292Z,89509.53
2023-08-18T20:36:21.171Z,89521.63
2023-08-18T20:38:48.965Z,89509.09
2023-08-18T20:41:16.160Z,89509.66
2023-08-18T20:43:43.415Z,89510.09
2023-08-18T20:46:11.082Z,89532.47
2023-08-18T20:48:38.529Z,89522.69
2023-08-18T20:51:08.380Z,89526.59
2023-08-18T20:53:36.865Z,89526.25
2023-08-18T20:56:04.850Z,89505.72
2023-08-18T20:58:31.801Z,89530.97
2023-08-18T21:00:58.826Z,89509.53
2023-08-18T21:03:26.153Z,89515.53
2023-08-18T21:05:53.512Z,89527.75
2023-08-18T21:08:20.355Z,89514.50
2023-08-18T21:10:47.320Z,89524.00
2023-08-18T21:13:14.314Z,89530.88
2023-08-18T21:15:41.237Z,89516.63
2023-08-18T21:18:08.415Z,89532.38
2023-08-18T21:20:35.639Z,89530.63
2023-08-18T21:23:02.609Z,89516.84
2023-08-18T21:25:29.613Z,89519.41
2023-08-18T21:27:56.597Z,89513.97
2023-08-18T21:30:23.495Z,89520.25
2023-08-18T21:32:50.564Z,89519.81
2023-08-18T21:35:17.586Z,89515.94
2023-08-18T21:37:45.053Z,89532.22
2023-08-18T21:40:12.749Z,89511.22
2023-08-18T21:42:39.654Z,89524.44
2023-08-18T21:45:07.283Z,89524.38
2023-08-18T21:47:34.383Z,89519.50
2023-08-18T21:50:01.357Z,89529.91
2023-08-18T21:52:28.809Z,89539.09
2023-08-18T21:54:55.880Z,89545.69
2023-08-18T21:57:22.873Z,89539.19
2023-08-18T21:59:50.241Z,89535.56
2023-08-18T22:02:17.313Z,89536.69
2023-08-18T22:04:44.244Z,89542.78
2023-08-18T22:07:11.142Z,89543.44
2023-08-18T22:09:38.046Z,89531.72
2023-08-18T22:12:05.305Z,89541.75
2023-08-18T22:14:32.182Z,89532.72
2023-08-18T22:16:59.130Z,89532.03
2023-08-18T22:19:25.973Z,89543.91
2023-08-18T22:21:52.845Z,89546.47
2023-08-18T22:24:19.726Z,89540.44
2023-08-18T22:26:46.670Z,89543.25
2023-08-18T22:29:13.575Z,89547.59
2023-08-18T22:31:40.554Z,89548.13
2023-08-18T22:34:07.674Z,89544.94
2023-08-18T22:36:35.179Z,89541.50
2023-08-18T22:39:02.760Z,89529.94
2023-08-18T22:41:30.125Z,89541.63
2023-08-18T22:43:57.343Z,89542.75
2023-08-18T22:46:24.885Z,89550.13
2023-08-18T22:48:51.815Z,89547.78
2023-08-18T22:51:18.799Z,89546.56
2023-08-18T22:53:45.932Z,89548.00
2023-08-18T22:56:12.913Z,89539.34
2023-08-18T22:58:40.461Z,89548.28
2023-08-18T23:01:07.480Z,89536.16
2023-08-18T23:03:34.558Z,89543.66
2023-08-18T23:06:02.194Z,89529.78
2023-08-18T23:08:29.249Z,89551.91
2023-08-18T23:11:02.169Z,89550.88
2023-08-18T23:13:29.376Z,89552.88
2023-08-18T23:15:56.295Z,89545.31
2023-08-18T23:18:23.233Z,89544.28
2023-08-18T23:20:50.199Z,89540.44
2023-08-18T23:23:17.116Z,89542.66
2023-08-18T23:25:44.054Z,89519.78
2023-08-18T23:28:11.024Z,89542.47
2023-08-18T23:30:37.911Z,89526.00
2023-08-18T23:33:05.240Z,89529.66
2023-08-18T23:35:32.325Z,89531.88
2023-08-18T23:37:59.220Z,89541.63
2023-08-18T23:40:26.091Z,89541.28
2023-08-18T23:42:53.041Z,89523.72
2023-08-18T23:45:19.974Z,89542.56
2023-08-18T23:47:46.940Z,89549.69
2023-08-18T23:50:13.949Z,89537.38
2023-08-18T23:52:40.868Z,89544.44
2023-08-18T23:55:08.188Z,89546.28
2023-08-18T23:57:35.195Z,89542.88
